sensor_id;sensor_type;location;lat;lon;timestamp;P1;durP1;ratioP1;P2;durP2;ratioP2
2972;SDS011;1496;51.404;7.232;2023-02-21T00:00:14;37.57;;;22.53;;
2972;SDS011;1496;51.404;7.232;2023-02-21T00:02:59;36.80;;;21.00;;
2972;SDS011;1496;51.404;7.232;2023-02-21T00:05:44;44.97;;;23.03;;
2972;SDS011;1496;51.404;7.232;2023-02-21T00:08:31;39.33;;;22.60;;
2972;SDS011;1496;51.404;7.232;2023-02-21T00:11:16;37.53;;;23.87;;
2972;SDS011;1496;51.404;7.232;2023-02-21T00:14:01;36.67;;;22.33;;
2972;SDS011;1496;51.404;7.232;2023-02-21T00:16:46;38.30;;;21.07;;
2972;SDS011;1496;51.404;7.232;2023-02-21T00:19:31;37.30;;;23.23;;
2972;SDS011;1496;51.404;7.232;2023-02-21T00:22:16;37.43;;;22.17;;
2972;SDS011;1496;51.404;7.232;2023-02-21T00:25:02;38.63;;;23.70;;
2972;SDS011;1496;51.404;7.232;2023-02-21T00:27:47;37.37;;;22.37;;
2972;SDS011;1496;51.404;7.232;2023-02-21T00:30:32;38.50;;;22.17;;
2972;SDS011;1496;51.404;7.232;2023-02-21T00:33:17;44.60;;;23.77;;
2972;SDS011;1496;51.404;7.232;2023-02-21T00:36:02;36.80;;;21.33;;
2972;SDS011;1496;51.404;7.232;2023-02-21T00:38:48;62.77;;;23.33;;
2972;SDS011;1496;51.404;7.232;2023-02-21T00:41:33;44.90;;;24.03;;
2972;SDS011;1496;51.404;7.232;2023-02-21T00:44:19;46.37;;;25.60;;
2972;SDS011;1496;51.404;7.232;2023-02-21T00:47:04;38.57;;;22.77;;
2972;SDS011;1496;51.404;7.232;2023-02-21T00:49:49;38.80;;;22.50;;
2972;SDS011;1496;51.404;7.232;2023-02-21T00:52:35;41.53;;;23.73;;
2972;SDS011;1496;51.404;7.232;2023-02-21T00:55:21;48.67;;;24.37;;
2972;SDS011;1496;51.404;7.232;2023-02-21T00:58:06;39.90;;;22.37;;
2972;SDS011;1496;51.404;7.232;2023-02-21T01:00:51;42.13;;;24.40;;
2972;SDS011;1496;51.404;7.232;2023-02-21T01:03:36;46.67;;;23.60;;
2972;SDS011;1496;51.404;7.232;2023-02-21T01:06:21;43.77;;;24.70;;
2972;SDS011;1496;51.404;7.232;2023-02-21T01:09:07;41.47;;;22.67;;
2972;SDS011;1496;51.404;7.232;2023-02-21T01:11:53;43.20;;;23.30;;
2972;SDS011;1496;51.404;7.232;2023-02-21T01:14:39;49.47;;;25.40;;
2972;SDS011;1496;51.404;7.232;2023-02-21T01:17:25;50.07;;;25.27;;
2972;SDS011;1496;51.404;7.232;2023-02-21T01:20:10;45.80;;;23.73;;
2972;SDS011;1496;51.404;7.232;2023-02-21T01:22:56;43.77;;;24.20;;
2972;SDS011;1496;51.404;7.232;2023-02-21T01:25:43;47.53;;;24.93;;
2972;SDS011;1496;51.404;7.232;2023-02-21T01:28:28;47.73;;;24.93;;
2972;SDS011;1496;51.404;7.232;2023-02-21T01:31:17;43.80;;;23.93;;
2972;SDS011;1496;51.404;7.232;2023-02-21T01:34:04;47.23;;;24.90;;
2972;SDS011;1496;51.404;7.232;2023-02-21T01:36:50;48.63;;;25.57;;
2972;SDS011;1496;51.404;7.232;2023-02-21T01:39:35;43.57;;;25.77;;
2972;SDS011;1496;51.404;7.232;2023-02-21T01:42:21;54.50;;;26.40;;
2972;SDS011;1496;51.404;7.232;2023-02-21T01:48:06;53.97;;;24.83;;
2972;SDS011;1496;51.404;7.232;2023-02-21T01:51:00;53.43;;;26.17;;
2972;SDS011;1496;51.404;7.232;2023-02-21T01:53:48;50.27;;;24.87;;
2972;SDS011;1496;51.404;7.232;2023-02-21T01:56:33;51.13;;;27.57;;
2972;SDS011;1496;51.404;7.232;2023-02-21T01:59:21;46.90;;;24.67;;
2972;SDS011;1496;51.404;7.232;2023-02-21T02:05:10;43.03;;;24.10;;
2972;SDS011;1496;51.404;7.232;2023-02-21T02:07:58;52.50;;;25.60;;
2972;SDS011;1496;51.404;7.232;2023-02-21T02:10:43;56.57;;;27.20;;
2972;SDS011;1496;51.404;7.232;2023-02-21T02:13:49;55.30;;;25.80;;
2972;SDS011;1496;51.404;7.232;2023-02-21T02:35:38;57.43;;;28.73;;
2972;SDS011;1496;51.404;7.232;2023-02-21T02:41:25;57.37;;;27.70;;
2972;SDS011;1496;51.404;7.232;2023-02-21T02:46:31;59.30;;;29.97;;
2972;SDS011;1496;51.404;7.232;2023-02-21T02:52:03;64.93;;;28.50;;
2972;SDS011;1496;51.404;7.232;2023-02-21T02:54:32;61.27;;;27.40;;
2972;SDS011;1496;51.404;7.232;2023-02-21T02:57:00;64.23;;;29.53;;
2972;SDS011;1496;51.404;7.232;2023-02-21T02:59:36;57.10;;;28.33;;
2972;SDS011;1496;51.404;7.232;2023-02-21T03:05:10;61.60;;;28.77;;
2972;SDS011;1496;51.404;7.232;2023-02-21T03:10:32;63.70;;;29.13;;
2972;SDS011;1496;51.404;7.232;2023-02-21T03:13:17;61.90;;;29.20;;
2972;SDS011;1496;51.404;7.232;2023-02-21T03:18:54;53.40;;;29.00;;
2972;SDS011;1496;51.404;7.232;2023-02-21T03:21:33;61.00;;;28.93;;
2972;SDS011;1496;51.404;7.232;2023-02-21T03:24:03;54.17;;;29.03;;
2972;SDS011;1496;51.404;7.232;2023-02-21T03:26:34;54.73;;;27.73;;
2972;SDS011;1496;51.404;7.232;2023-02-21T03:29:22;61.83;;;29.50;;
2972;SDS011;1496;51.404;7.232;2023-02-21T03:31:54;56.77;;;30.13;;
2972;SDS011;1496;51.404;7.232;2023-02-21T03:34:36;62.87;;;30.43;;
2972;SDS011;1496;51.404;7.232;2023-02-21T03:37:04;59.43;;;30.47;;
2972;SDS011;1496;51.404;7.232;2023-02-21T03:39:31;62.97;;;31.13;;
2972;SDS011;1496;51.404;7.232;2023-02-21T03:41:58;55.10;;;28.80;;
2972;SDS011;1496;51.404;7.232;2023-02-21T03:44:25;56.70;;;28.70;;
2972;SDS011;1496;51.404;7.232;2023-02-21T03:46:52;54.83;;;27.50;;
2972;SDS011;1496;51.404;7.232;2023-02-21T03:49:20;63.23;;;30.70;;
2972;SDS011;1496;51.404;7.232;2023-02-21T03:51:48;59.50;;;30.30;;
2972;SDS011;1496;51.404;7.232;2023-02-21T03:54:15;62.27;;;32.37;;
2972;SDS011;1496;51.404;7.232;2023-02-21T03:56:47;61.60;;;30.40;;
2972;SDS011;1496;51.404;7.232;2023-02-21T03:59:27;63.07;;;29.53;;
2972;SDS011;1496;51.404;7.232;2023-02-21T04:01:54;63.50;;;28.37;;
2972;SDS011;1496;51.404;7.232;2023-02-21T04:04:22;63.73;;;31.00;;
2972;SDS011;1496;51.404;7.232;2023-02-21T04:06:57;62.03;;;30.37;;
2972;SDS011;1496;51.404;7.232;2023-02-21T04:09:26;65.80;;;30.93;;
2972;SDS011;1496;51.404;7.232;2023-02-21T04:11:53;60.80;;;30.10;;
2972;SDS011;1496;51.404;7.232;2023-02-21T04:14:21;67.80;;;31.67;;
2972;SDS011;1496;51.404;7.232;2023-02-21T04:16:48;63.10;;;31.37;;
2972;SDS011;1496;51.404;7.232;2023-02-21T04:19:16;64.80;;;30.70;;
2972;SDS011;1496;51.404;7.232;2023-02-21T04:21:43;60.23;;;31.20;;
2972;SDS011;1496;51.404;7.232;2023-02-21T04:24:11;60.93;;;29.23;;
2972;SDS011;1496;51.404;7.232;2023-02-21T04:26:38;62.20;;;31.30;;
2972;SDS011;1496;51.404;7.232;2023-02-21T04:29:05;72.67;;;32.97;;
2972;SDS011;1496;51.404;7.232;2023-02-21T04:31:32;68.60;;;31.93;;
2972;SDS011;1496;51.404;7.232;2023-02-21T04:34:04;62.30;;;32.20;;
2972;SDS011;1496;51.404;7.232;2023-02-21T04:36:31;58.10;;;30.70;;
2972;SDS011;1496;51.404;7.232;2023-02-21T04:38:58;67.70;;;32.23;;
2972;SDS011;1496;51.404;7.232;2023-02-21T04:41:25;70.10;;;32.73;;
2972;SDS011;1496;51.404;7.232;2023-02-21T04:43:51;64.70;;;31.37;;
2972;SDS011;1496;51.404;7.232;2023-02-21T04:46:18;75.80;;;33.50;;
2972;SDS011;1496;51.404;7.232;2023-02-21T04:48:46;70.57;;;31.83;;
2972;SDS011;1496;51.404;7.232;2023-02-21T04:51:14;69.27;;;31.93;;
2972;SDS011;1496;51.404;7.232;2023-02-21T04:53:45;66.47;;;31.90;;
2972;SDS011;1496;51.404;7.232;2023-02-21T04:56:17;67.37;;;32.30;;
2972;SDS011;1496;51.404;7.232;2023-02-21T04:58:45;72.27;;;31.20;;
2972;SDS011;1496;51.404;7.232;2023-02-21T05:01:12;65.37;;;29.97;;
2972;SDS011;1496;51.404;7.232;2023-02-21T05:03:40;73.20;;;33.60;;
2972;SDS011;1496;51.404;7.232;2023-02-21T05:06:07;70.87;;;33.80;;
2972;SDS011;1496;51.404;7.232;2023-02-21T05:08:34;74.90;;;35.00;;
2972;SDS011;1496;51.404;7.232;2023-02-21T05:11:02;67.87;;;32.40;;
2972;SDS011;1496;51.404;7.232;2023-02-21T05:13:29;80.63;;;33.70;;
2972;SDS011;1496;51.404;7.232;2023-02-21T05:15:55;72.13;;;33.73;;
2972;SDS011;1496;51.404;7.232;2023-02-21T05:18:23;84.20;;;35.70;;
2972;SDS011;1496;51.404;7.232;2023-02-21T05:20:53;81.40;;;32.90;;
2972;SDS011;1496;51.404;7.232;2023-02-21T05:23:21;70.90;;;32.77;;
2972;SDS011;1496;51.404;7.232;2023-02-21T05:25:59;67.30;;;32.23;;
2972;SDS011;1496;51.404;7.232;2023-02-21T05:28:27;84.73;;;34.13;;
2972;SDS011;1496;51.404;7.232;2023-02-21T05:30:53;73.53;;;33.40;;
2972;SDS011;1496;51.404;7.232;2023-02-21T05:33:19;66.63;;;34.33;;
2972;SDS011;1496;51.404;7.232;2023-02-21T05:35:47;67.87;;;32.07;;
2972;SDS011;1496;51.404;7.232;2023-02-21T05:38:14;77.20;;;34.77;;
2972;SDS011;1496;51.404;7.232;2023-02-21T05:40:42;65.67;;;32.07;;
2972;SDS011;1496;51.404;7.232;2023-02-21T05:43:08;82.70;;;36.80;;
2972;SDS011;1496;51.404;7.232;2023-02-21T05:45:35;69.53;;;32.00;;
2972;SDS011;1496;51.404;7.232;2023-02-21T05:48:03;84.77;;;37.47;;
2972;SDS011;1496;51.404;7.232;2023-02-21T05:50:30;70.57;;;34.50;;
2972;SDS011;1496;51.404;7.232;2023-02-21T05:52:57;70.47;;;33.20;;
2972;SDS011;1496;51.404;7.232;2023-02-21T05:55:25;74.10;;;33.60;;
2972;SDS011;1496;51.404;7.232;2023-02-21T05:57:52;80.33;;;35.37;;
2972;SDS011;1496;51.404;7.232;2023-02-21T06:00:21;68.03;;;32.10;;
2972;SDS011;1496;51.404;7.232;2023-02-21T06:02:53;67.13;;;32.90;;
2972;SDS011;1496;51.404;7.232;2023-02-21T06:05:21;66.57;;;32.13;;
2972;SDS011;1496;51.404;7.232;2023-02-21T06:07:48;79.87;;;34.83;;
2972;SDS011;1496;51.404;7.232;2023-02-21T06:10:18;79.27;;;36.77;;
2972;SDS011;1496;51.404;7.232;2023-02-21T06:12:45;76.43;;;33.67;;
2972;SDS011;1496;51.404;7.232;2023-02-21T06:15:12;74.03;;;34.00;;
2972;SDS011;1496;51.404;7.232;2023-02-21T06:17:40;67.83;;;33.10;;
2972;SDS011;1496;51.404;7.232;2023-02-21T06:20:09;61.90;;;31.27;;
2972;SDS011;1496;51.404;7.232;2023-02-21T06:22:39;64.90;;;33.30;;
2972;SDS011;1496;51.404;7.232;2023-02-21T06:25:08;71.97;;;34.40;;
2972;SDS011;1496;51.404;7.232;2023-02-21T06:27:35;75.63;;;32.27;;
2972;SDS011;1496;51.404;7.232;2023-02-21T06:30:03;66.17;;;33.47;;
2972;SDS011;1496;51.404;7.232;2023-02-21T06:32:31;71.07;;;33.27;;
2972;SDS011;1496;51.404;7.232;2023-02-21T06:34:57;75.00;;;34.00;;
2972;SDS011;1496;51.404;7.232;2023-02-21T06:37:23;64.60;;;32.07;;
2972;SDS011;1496;51.404;7.232;2023-02-21T06:39:50;64.30;;;32.23;;
2972;SDS011;1496;51.404;7.232;2023-02-21T06:42:18;71.90;;;33.00;;
2972;SDS011;1496;51.404;7.232;2023-02-21T06:44:44;66.60;;;32.90;;
2972;SDS011;1496;51.404;7.232;2023-02-21T06:47:13;74.57;;;34.27;;
2972;SDS011;1496;51.404;7.232;2023-02-21T06:49:40;73.40;;;32.63;;
2972;SDS011;1496;51.404;7.232;2023-02-21T06:52:07;67.17;;;33.17;;
2972;SDS011;1496;51.404;7.232;2023-02-21T06:54:36;69.03;;;32.37;;
2972;SDS011;1496;51.404;7.232;2023-02-21T06:57:04;63.73;;;31.27;;
2972;SDS011;1496;51.404;7.232;2023-02-21T06:59:32;65.27;;;33.60;;
2972;SDS011;1496;51.404;7.232;2023-02-21T07:01:59;67.03;;;33.50;;
2972;SDS011;1496;51.404;7.232;2023-02-21T07:04:28;74.67;;;35.87;;
2972;SDS011;1496;51.404;7.232;2023-02-21T07:06:54;68.87;;;32.73;;
2972;SDS011;1496;51.404;7.232;2023-02-21T07:09:22;62.40;;;31.07;;
2972;SDS011;1496;51.404;7.232;2023-02-21T07:11:48;65.97;;;30.37;;
2972;SDS011;1496;51.404;7.232;2023-02-21T07:14:16;68.03;;;30.87;;
2972;SDS011;1496;51.404;7.232;2023-02-21T07:16:43;75.50;;;34.43;;
2972;SDS011;1496;51.404;7.232;2023-02-21T07:19:10;69.30;;;32.30;;
2972;SDS011;1496;51.404;7.232;2023-02-21T07:21:40;80.07;;;34.00;;
2972;SDS011;1496;51.404;7.232;2023-02-21T07:24:07;79.07;;;34.20;;
2972;SDS011;1496;51.404;7.232;2023-02-21T07:26:35;79.23;;;33.30;;
2972;SDS011;1496;51.404;7.232;2023-02-21T07:29:02;70.90;;;34.30;;
2972;SDS011;1496;51.404;7.232;2023-02-21T07:31:33;73.30;;;33.50;;
2972;SDS011;1496;51.404;7.232;2023-02-21T07:33:59;65.20;;;32.83;;
2972;SDS011;1496;51.404;7.232;2023-02-21T07:36:25;82.47;;;34.20;;
2972;SDS011;1496;51.404;7.232;2023-02-21T07:38:52;67.73;;;32.67;;
2972;SDS011;1496;51.404;7.232;2023-02-21T07:41:18;79.43;;;32.90;;
2972;SDS011;1496;51.404;7.232;2023-02-21T07:43:45;69.63;;;34.17;;
2972;SDS011;1496;51.404;7.232;2023-02-21T07:46:13;70.77;;;33.13;;
2972;SDS011;1496;51.404;7.232;2023-02-21T07:48:42;76.70;;;33.37;;
2972;SDS011;1496;51.404;7.232;2023-02-21T07:51:09;77.03;;;33.13;;
2972;SDS011;1496;51.404;7.232;2023-02-21T07:53:35;71.67;;;34.27;;
2972;SDS011;1496;51.404;7.232;2023-02-21T07:56:03;72.00;;;32.77;;
2972;SDS011;1496;51.404;7.232;2023-02-21T07:58:30;86.50;;;37.67;;
2972;SDS011;1496;51.404;7.232;2023-02-21T08:00:57;73.87;;;33.73;;
2972;SDS011;1496;51.404;7.232;2023-02-21T08:03:23;73.23;;;33.70;;
2972;SDS011;1496;51.404;7.232;2023-02-21T08:05:51;86.10;;;32.97;;
2972;SDS011;1496;51.404;7.232;2023-02-21T08:08:17;72.30;;;35.10;;
2972;SDS011;1496;51.404;7.232;2023-02-21T08:10:44;69.40;;;32.00;;
2972;SDS011;1496;51.404;7.232;2023-02-21T08:13:11;66.40;;;31.70;;
2972;SDS011;1496;51.404;7.232;2023-02-21T08:15:38;74.33;;;32.07;;
2972;SDS011;1496;51.404;7.232;2023-02-21T08:18:04;70.73;;;31.20;;
2972;SDS011;1496;51.404;7.232;2023-02-21T08:20:31;79.87;;;31.50;;
2972;SDS011;1496;51.404;7.232;2023-02-21T08:23:00;73.40;;;32.07;;
2972;SDS011;1496;51.404;7.232;2023-02-21T08:25:26;71.60;;;33.07;;
2972;SDS011;1496;51.404;7.232;2023-02-21T08:27:52;60.97;;;29.30;;
2972;SDS011;1496;51.404;7.232;2023-02-21T08:30:20;67.30;;;29.87;;
2972;SDS011;1496;51.404;7.232;2023-02-21T08:32:47;65.47;;;30.20;;
2972;SDS011;1496;51.404;7.232;2023-02-21T08:35:16;68.57;;;30.50;;
2972;SDS011;1496;51.404;7.232;2023-02-21T08:37:45;71.83;;;30.27;;
2972;SDS011;1496;51.404;7.232;2023-02-21T08:40:19;64.63;;;28.43;;
2972;SDS011;1496;51.404;7.232;2023-02-21T08:42:48;59.83;;;30.93;;
2972;SDS011;1496;51.404;7.232;2023-02-21T08:45:17;66.33;;;29.40;;
2972;SDS011;1496;51.404;7.232;2023-02-21T08:47:46;64.20;;;28.60;;
2972;SDS011;1496;51.404;7.232;2023-02-21T08:50:13;61.90;;;26.70;;
2972;SDS011;1496;51.404;7.232;2023-02-21T08:52:40;65.87;;;27.13;;
2972;SDS011;1496;51.404;7.232;2023-02-21T08:55:06;58.20;;;26.57;;
2972;SDS011;1496;51.404;7.232;2023-02-21T08:57:35;60.57;;;25.40;;
2972;SDS011;1496;51.404;7.232;2023-02-21T09:00:03;54.33;;;24.70;;
2972;SDS011;1496;51.404;7.232;2023-02-21T09:02:35;53.93;;;24.30;;
2972;SDS011;1496;51.404;7.232;2023-02-21T09:05:10;60.40;;;24.57;;
2972;SDS011;1496;51.404;7.232;2023-02-21T09:07:41;58.67;;;26.60;;
2972;SDS011;1496;51.404;7.232;2023-02-21T09:10:08;58.07;;;23.20;;
2972;SDS011;1496;51.404;7.232;2023-02-21T09:12:36;53.30;;;23.57;;
2972;SDS011;1496;51.404;7.232;2023-02-21T09:15:04;51.13;;;23.03;;
2972;SDS011;1496;51.404;7.232;2023-02-21T09:17:33;52.63;;;24.13;;
2972;SDS011;1496;51.404;7.232;2023-02-21T09:20:03;49.73;;;22.43;;
2972;SDS011;1496;51.404;7.232;2023-02-21T09:22:32;45.93;;;21.97;;
2972;SDS011;1496;51.404;7.232;2023-02-21T09:25:00;53.63;;;22.17;;
2972;SDS011;1496;51.404;7.232;2023-02-21T09:27:28;50.67;;;23.00;;
2972;SDS011;1496;51.404;7.232;2023-02-21T09:30:02;55.57;;;23.83;;
2972;SDS011;1496;51.404;7.232;2023-02-21T09:32:31;48.93;;;23.53;;
2972;SDS011;1496;51.404;7.232;2023-02-21T09:35:00;45.70;;;22.40;;
2972;SDS011;1496;51.404;7.232;2023-02-21T09:37:26;49.70;;;20.80;;
2972;SDS011;1496;51.404;7.232;2023-02-21T09:39:53;53.00;;;23.73;;
2972;SDS011;1496;51.404;7.232;2023-02-21T09:42:20;47.93;;;22.30;;
2972;SDS011;1496;51.404;7.232;2023-02-21T09:44:49;46.03;;;20.90;;
2972;SDS011;1496;51.404;7.232;2023-02-21T09:47:26;55.53;;;21.93;;
2972;SDS011;1496;51.404;7.232;2023-02-21T09:50:00;44.77;;;19.43;;
2972;SDS011;1496;51.404;7.232;2023-02-21T09:52:34;44.73;;;20.67;;
2972;SDS011;1496;51.404;7.232;2023-02-21T09:55:06;41.20;;;19.20;;
2972;SDS011;1496;51.404;7.232;2023-02-21T09:57:35;51.73;;;21.73;;
2972;SDS011;1496;51.404;7.232;2023-02-21T10:00:05;45.90;;;20.50;;
2972;SDS011;1496;51.404;7.232;2023-02-21T10:02:52;43.20;;;21.33;;
2972;SDS011;1496;51.404;7.232;2023-02-21T10:08:23;39.03;;;20.40;;
2972;SDS011;1496;51.404;7.232;2023-02-21T10:11:15;35.13;;;18.17;;
2972;SDS011;1496;51.404;7.232;2023-02-21T10:14:26;34.13;;;17.40;;
2972;SDS011;1496;51.404;7.232;2023-02-21T10:19:52;37.27;;;17.53;;
2972;SDS011;1496;51.404;7.232;2023-02-21T10:22:24;40.10;;;19.57;;
2972;SDS011;1496;51.404;7.232;2023-02-21T10:24:56;34.97;;;17.37;;
2972;SDS011;1496;51.404;7.232;2023-02-21T10:27:23;38.60;;;18.10;;
2972;SDS011;1496;51.404;7.232;2023-02-21T10:30:02;36.37;;;17.73;;
2972;SDS011;1496;51.404;7.232;2023-02-21T10:32:36;37.70;;;18.30;;
2972;SDS011;1496;51.404;7.232;2023-02-21T10:35:04;31.87;;;15.80;;
2972;SDS011;1496;51.404;7.232;2023-02-21T10:37:42;38.93;;;17.47;;
2972;SDS011;1496;51.404;7.232;2023-02-21T10:46:00;38.47;;;17.37;;
2972;SDS011;1496;51.404;7.232;2023-02-21T10:48:47;34.60;;;17.60;;
2972;SDS011;1496;51.404;7.232;2023-02-21T10:51:38;41.17;;;17.70;;
2972;SDS011;1496;51.404;7.232;2023-02-21T10:54:21;33.80;;;17.53;;
2972;SDS011;1496;51.404;7.232;2023-02-21T10:56:51;32.40;;;16.10;;
2972;SDS011;1496;51.404;7.232;2023-02-21T10:59:20;37.33;;;18.07;;
2972;SDS011;1496;51.404;7.232;2023-02-21T11:01:50;30.30;;;16.77;;
2972;SDS011;1496;51.404;7.232;2023-02-21T11:07:07;35.73;;;16.37;;
2972;SDS011;1496;51.404;7.232;2023-02-21T11:09:41;31.73;;;16.53;;
2972;SDS011;1496;51.404;7.232;2023-02-21T11:17:23;31.77;;;15.77;;
2972;SDS011;1496;51.404;7.232;2023-02-21T11:19:54;32.10;;;16.60;;
2972;SDS011;1496;51.404;7.232;2023-02-21T11:22:22;36.27;;;17.27;;
2972;SDS011;1496;51.404;7.232;2023-02-21T11:27:26;27.93;;;15.03;;
2972;SDS011;1496;51.404;7.232;2023-02-21T11:29:55;32.00;;;17.30;;
2972;SDS011;1496;51.404;7.232;2023-02-21T11:32:25;33.00;;;15.80;;
2972;SDS011;1496;51.404;7.232;2023-02-21T11:35:14;36.07;;;15.90;;
2972;SDS011;1496;51.404;7.232;2023-02-21T11:38:02;29.67;;;15.07;;
2972;SDS011;1496;51.404;7.232;2023-02-21T11:45:41;35.50;;;16.40;;
2972;SDS011;1496;51.404;7.232;2023-02-21T11:48:32;40.00;;;16.83;;
2972;SDS011;1496;51.404;7.232;2023-02-21T11:51:25;39.87;;;18.30;;
2972;SDS011;1496;51.404;7.232;2023-02-21T11:54:05;39.27;;;17.73;;
2972;SDS011;1496;51.404;7.232;2023-02-21T12:11:05;43.40;;;21.17;;
2972;SDS011;1496;51.404;7.232;2023-02-21T12:27:14;39.40;;;19.10;;
2972;SDS011;1496;51.404;7.232;2023-02-21T12:30:08;47.27;;;22.20;;
2972;SDS011;1496;51.404;7.232;2023-02-21T12:33:01;37.53;;;20.90;;
2972;SDS011;1496;51.404;7.232;2023-02-21T12:36:01;36.50;;;19.60;;
2972;SDS011;1496;51.404;7.232;2023-02-21T12:38:42;41.03;;;20.70;;
2972;SDS011;1496;51.404;7.232;2023-02-21T12:41:40;43.63;;;20.20;;
2972;SDS011;1496;51.404;7.232;2023-02-21T12:47:09;44.43;;;22.77;;
2972;SDS011;1496;51.404;7.232;2023-02-21T12:49:44;46.53;;;21.57;;
2972;SDS011;1496;51.404;7.232;2023-02-21T12:55:15;34.17;;;19.40;;
2972;SDS011;1496;51.404;7.232;2023-02-21T13:00:48;53.80;;;22.37;;
2972;SDS011;1496;51.404;7.232;2023-02-21T13:06:21;40.33;;;21.77;;
2972;SDS011;1496;51.404;7.232;2023-02-21T13:11:49;42.70;;;21.20;;
2972;SDS011;1496;51.404;7.232;2023-02-21T13:14:44;36.50;;;20.60;;
2972;SDS011;1496;51.404;7.232;2023-02-21T13:17:17;40.00;;;19.83;;
2972;SDS011;1496;51.404;7.232;2023-02-21T13:19:59;39.83;;;21.50;;
2972;SDS011;1496;51.404;7.232;2023-02-21T13:26:21;45.07;;;20.20;;
2972;SDS011;1496;51.404;7.232;2023-02-21T13:29:16;45.80;;;22.70;;
2972;SDS011;1496;51.404;7.232;2023-02-21T13:31:47;42.33;;;21.77;;
2972;SDS011;1496;51.404;7.232;2023-02-21T13:34:23;53.73;;;23.30;;
2972;SDS011;1496;51.404;7.232;2023-02-21T13:36:59;50.93;;;23.20;;
2972;SDS011;1496;51.404;7.232;2023-02-21T13:39:31;51.57;;;24.53;;
2972;SDS011;1496;51.404;7.232;2023-02-21T13:42:09;50.77;;;24.20;;
2972;SDS011;1496;51.404;7.232;2023-02-21T13:44:47;50.87;;;22.10;;
2972;SDS011;1496;51.404;7.232;2023-02-21T13:53:09;42.70;;;20.20;;
2972;SDS011;1496;51.404;7.232;2023-02-21T13:59:29;39.20;;;18.90;;
2972;SDS011;1496;51.404;7.232;2023-02-21T14:02:14;42.93;;;21.00;;
2972;SDS011;1496;51.404;7.232;2023-02-21T14:07:41;41.93;;;20.07;;
2972;SDS011;1496;51.404;7.232;2023-02-21T14:10:24;37.20;;;19.57;;
2972;SDS011;1496;51.404;7.232;2023-02-21T14:13:01;45.30;;;21.57;;
2972;SDS011;1496;51.404;7.232;2023-02-21T14:15:35;42.90;;;20.70;;
2972;SDS011;1496;51.404;7.232;2023-02-21T14:18:03;40.77;;;20.10;;
2972;SDS011;1496;51.404;7.232;2023-02-21T14:20:30;39.10;;;18.97;;
2972;SDS011;1496;51.404;7.232;2023-02-21T14:23:00;45.43;;;19.80;;
2972;SDS011;1496;51.404;7.232;2023-02-21T14:25:29;35.43;;;17.43;;
2972;SDS011;1496;51.404;7.232;2023-02-21T14:28:00;38.10;;;18.73;;
2972;SDS011;1496;51.404;7.232;2023-02-21T14:30:42;37.90;;;18.53;;
2972;SDS011;1496;51.404;7.232;2023-02-21T14:33:23;34.63;;;17.50;;
2972;SDS011;1496;51.404;7.232;2023-02-21T14:35:55;35.83;;;17.90;;
2972;SDS011;1496;51.404;7.232;2023-02-21T14:38:27;36.97;;;19.37;;
2972;SDS011;1496;51.404;7.232;2023-02-21T14:41:08;39.53;;;18.70;;
2972;SDS011;1496;51.404;7.232;2023-02-21T14:57:49;41.83;;;18.17;;
2972;SDS011;1496;51.404;7.232;2023-02-21T15:03:46;39.53;;;19.67;;
2972;SDS011;1496;51.404;7.232;2023-02-21T15:06:25;43.13;;;19.37;;
2972;SDS011;1496;51.404;7.232;2023-02-21T15:08:53;42.93;;;21.33;;
2972;SDS011;1496;51.404;7.232;2023-02-21T15:14:22;51.43;;;23.10;;
2972;SDS011;1496;51.404;7.232;2023-02-21T15:19:30;48.90;;;24.07;;
2972;SDS011;1496;51.404;7.232;2023-02-21T15:30:25;49.80;;;22.20;;
2972;SDS011;1496;51.404;7.232;2023-02-21T15:33:05;40.93;;;20.37;;
2972;SDS011;1496;51.404;7.232;2023-02-21T15:35:36;47.77;;;22.13;;
2972;SDS011;1496;51.404;7.232;2023-02-21T15:38:10;51.50;;;22.57;;
2972;SDS011;1496;51.404;7.232;2023-02-21T15:40:46;56.63;;;25.00;;
2972;SDS011;1496;51.404;7.232;2023-02-21T15:43:21;51.80;;;24.83;;
2972;SDS011;1496;51.404;7.232;2023-02-21T15:45:54;49.50;;;24.07;;
2972;SDS011;1496;51.404;7.232;2023-02-21T15:48:23;44.00;;;20.60;;
2972;SDS011;1496;51.404;7.232;2023-02-21T15:50:52;51.70;;;23.10;;
2972;SDS011;1496;51.404;7.232;2023-02-21T15:53:19;49.60;;;23.77;;
2972;SDS011;1496;51.404;7.232;2023-02-21T15:55:49;50.20;;;22.90;;
2972;SDS011;1496;51.404;7.232;2023-02-21T16:01:05;41.50;;;20.60;;
2972;SDS011;1496;51.404;7.232;2023-02-21T16:03:37;43.87;;;20.97;;
2972;SDS011;1496;51.404;7.232;2023-02-21T16:11:44;45.53;;;21.37;;
2972;SDS011;1496;51.404;7.232;2023-02-21T16:14:16;43.50;;;19.07;;
2972;SDS011;1496;51.404;7.232;2023-02-21T16:17:06;42.97;;;19.10;;
2972;SDS011;1496;51.404;7.232;2023-02-21T16:19:55;43.60;;;20.90;;
2972;SDS011;1496;51.404;7.232;2023-02-21T16:27:51;50.33;;;22.47;;
2972;SDS011;1496;51.404;7.232;2023-02-21T16:32:52;56.43;;;24.23;;
2972;SDS011;1496;51.404;7.232;2023-02-21T16:35:23;49.37;;;21.03;;
2972;SDS011;1496;51.404;7.232;2023-02-21T16:37:51;50.60;;;21.80;;
2972;SDS011;1496;51.404;7.232;2023-02-21T16:40:21;38.73;;;19.67;;
2972;SDS011;1496;51.404;7.232;2023-02-21T16:42:51;41.43;;;21.00;;
2972;SDS011;1496;51.404;7.232;2023-02-21T16:45:21;48.43;;;22.33;;
2972;SDS011;1496;51.404;7.232;2023-02-21T16:47:50;49.27;;;20.50;;
2972;SDS011;1496;51.404;7.232;2023-02-21T16:50:26;52.40;;;21.60;;
2972;SDS011;1496;51.404;7.232;2023-02-21T16:52:54;50.77;;;22.30;;
2972;SDS011;1496;51.404;7.232;2023-02-21T16:55:20;47.40;;;22.23;;
2972;SDS011;1496;51.404;7.232;2023-02-21T16:57:48;45.70;;;21.93;;
2972;SDS011;1496;51.404;7.232;2023-02-21T17:00:18;50.10;;;23.20;;
2972;SDS011;1496;51.404;7.232;2023-02-21T17:02:47;47.47;;;22.50;;
2972;SDS011;1496;51.404;7.232;2023-02-21T17:05:15;52.77;;;22.13;;
2972;SDS011;1496;51.404;7.232;2023-02-21T17:07:43;56.00;;;23.40;;
2972;SDS011;1496;51.404;7.232;2023-02-21T17:10:10;51.87;;;24.00;;
2972;SDS011;1496;51.404;7.232;2023-02-21T17:12:38;50.30;;;23.53;;
2972;SDS011;1496;51.404;7.232;2023-02-21T17:15:06;50.50;;;22.30;;
2972;SDS011;1496;51.404;7.232;2023-02-21T17:17:36;48.03;;;22.37;;
2972;SDS011;1496;51.404;7.232;2023-02-21T17:20:03;46.07;;;21.40;;
2972;SDS011;1496;51.404;7.232;2023-02-21T17:22:31;52.40;;;23.30;;
2972;SDS011;1496;51.404;7.232;2023-02-21T17:24:59;44.80;;;20.43;;
2972;SDS011;1496;51.404;7.232;2023-02-21T17:27:26;48.03;;;22.40;;
2972;SDS011;1496;51.404;7.232;2023-02-21T17:29:53;49.20;;;21.23;;
2972;SDS011;1496;51.404;7.232;2023-02-21T17:32:21;52.87;;;24.00;;
2972;SDS011;1496;51.404;7.232;2023-02-21T17:34:47;50.27;;;21.57;;
2972;SDS011;1496;51.404;7.232;2023-02-21T17:37:15;49.37;;;22.30;;
2972;SDS011;1496;51.404;7.232;2023-02-21T17:39:41;52.00;;;23.70;;
2972;SDS011;1496;51.404;7.232;2023-02-21T17:42:09;49.97;;;21.97;;
2972;SDS011;1496;51.404;7.232;2023-02-21T17:44:41;53.90;;;24.73;;
2972;SDS011;1496;51.404;7.232;2023-02-21T17:47:11;51.20;;;24.00;;
2972;SDS011;1496;51.404;7.232;2023-02-21T17:49:38;57.10;;;24.20;;
2972;SDS011;1496;51.404;7.232;2023-02-21T17:52:04;65.10;;;25.83;;
2972;SDS011;1496;51.404;7.232;2023-02-21T17:54:31;53.90;;;24.10;;
2972;SDS011;1496;51.404;7.232;2023-02-21T17:56:58;58.70;;;27.17;;
2972;SDS011;1496;51.404;7.232;2023-02-21T17:59:26;55.00;;;24.90;;
2972;SDS011;1496;51.404;7.232;2023-02-21T18:01:53;55.70;;;25.07;;
2972;SDS011;1496;51.404;7.232;2023-02-21T18:04:19;52.87;;;24.20;;
2972;SDS011;1496;51.404;7.232;2023-02-21T18:06:49;53.30;;;24.63;;
2972;SDS011;1496;51.404;7.232;2023-02-21T18:09:15;60.60;;;27.23;;
2972;SDS011;1496;51.404;7.232;2023-02-21T18:11:49;53.90;;;25.70;;
2972;SDS011;1496;51.404;7.232;2023-02-21T18:14:17;68.87;;;26.57;;
2972;SDS011;1496;51.404;7.232;2023-02-21T18:16:43;57.03;;;26.80;;
2972;SDS011;1496;51.404;7.232;2023-02-21T18:19:11;61.37;;;25.90;;